sensor_id;sensor_type;location;lat;lon;timestamp;pressure;altitude;pressure_sealevel;temperature;humidity
17230;BME280;8731;50.364;8.958;2023-05-11T00:00:10;99839.41;;;12.95;96.83
17230;BME280;8731;50.364;8.958;2023-05-11T00:04:33;99839.94;;;12.37;100.00
17230;BME280;8731;50.364;8.958;2023-05-11T00:08:56;99850.81;;;12.66;99.25
17230;BME280;8731;50.364;8.958;2023-05-11T00:13:19;99847.00;;;12.61;97.47
17230;BME280;8731;50.364;8.958;2023-05-11T00:17:41;99854.44;;;12.58;97.24
17230;BME280;8731;50.364;8.958;2023-05-11T00:22:04;99856.00;;;12.46;98.15
17230;BME280;8731;50.364;8.958;2023-05-11T00:26:28;99854.56;;;12.49;97.19
17230;BME280;8731;50.364;8.958;2023-05-11T00:30:54;99853.91;;;12.52;96.39
17230;BME280;8731;50.364;8.958;2023-05-11T00:35:17;99854.03;;;12.21;99.10
17230;BME280;8731;50.364;8.958;2023-05-11T00:39:39;99843.88;;;12.01;100.00
17230;BME280;8731;50.364;8.958;2023-05-11T00:44:03;99845.47;;;12.31;99.38
17230;BME280;8731;50.364;8.958;2023-05-11T00:48:26;99833.72;;;12.33;98.73
17230;BME280;8731;50.364;8.958;2023-05-11T00:52:49;99837.66;;;12.29;99.22
17230;BME280;8731;50.364;8.958;2023-05-11T00:57:11;99838.94;;;12.35;98.22
17230;BME280;8731;50.364;8.958;2023-05-11T01:01:37;99842.75;;;12.29;98.91
17230;BME280;8731;50.364;8.958;2023-05-11T01:06:04;99852.47;;;12.34;97.88
17230;BME280;8731;50.364;8.958;2023-05-11T01:10:33;99850.06;;;12.25;99.08
17230;BME280;8731;50.364;8.958;2023-05-11T01:15:07;99842.72;;;12.08;100.00
17230;BME280;8731;50.364;8.958;2023-05-11T01:19:40;99848.56;;;12.17;100.00
17230;BME280;8731;50.364;8.958;2023-05-11T01:24:19;99833.28;;;12.07;100.00
17230;BME280;8731;50.364;8.958;2023-05-11T01:29:04;99828.94;;;11.75;100.00
17230;BME280;8731;50.364;8.958;2023-05-11T01:33:37;99843.88;;;11.81;100.00
17230;BME280;8731;50.364;8.958;2023-05-11T01:38:05;99838.53;;;11.88;100.00
17230;BME280;8731;50.364;8.958;2023-05-11T01:42:35;99830.38;;;11.82;100.00
17230;BME280;8731;50.364;8.958;2023-05-11T01:47:04;99835.63;;;11.83;100.00
17230;BME280;8731;50.364;8.958;2023-05-11T01:51:33;99841.72;;;11.65;100.00
17230;BME280;8731;50.364;8.958;2023-05-11T01:55:58;99838.91;;;11.52;100.00
17230;BME280;8731;50.364;8.958;2023-05-11T02:00:22;99840.56;;;11.41;100.00
17230;BME280;8731;50.364;8.958;2023-05-11T02:04:46;99843.91;;;11.60;100.00
17230;BME280;8731;50.364;8.958;2023-05-11T02:09:12;99847.56;;;11.33;100.00
17230;BME280;8731;50.364;8.958;2023-05-11T02:13:37;99846.94;;;11.56;100.00
17230;BME280;8731;50.364;8.958;2023-05-11T02:18:03;99848.97;;;11.50;99.87
17230;BME280;8731;50.364;8.958;2023-05-11T02:22:28;99856.59;;;11.30;100.00
17230;BME280;8731;50.364;8.958;2023-05-11T02:26:54;99857.66;;;11.42;100.00
17230;BME280;8731;50.364;8.958;2023-05-11T02:31:18;99858.66;;;11.44;99.68
17230;BME280;8731;50.364;8.958;2023-05-11T02:35:46;99856.75;;;11.42;99.82
17230;BME280;8731;50.364;8.958;2023-05-11T02:40:15;99849.94;;;11.01;100.00
17230;BME280;8731;50.364;8.958;2023-05-11T02:44:46;99857.31;;;10.98;100.00
17230;BME280;8731;50.364;8.958;2023-05-11T02:49:17;99858.09;;;10.97;100.00
17230;BME280;8731;50.364;8.958;2023-05-11T02:53:44;99857.00;;;11.14;100.00
17230;BME280;8731;50.364;8.958;2023-05-11T02:58:09;99860.44;;;11.25;99.06
17230;BME280;8731;50.364;8.958;2023-05-11T03:02:38;99854.94;;;11.20;99.10
17230;BME280;8731;50.364;8.958;2023-05-11T03:07:01;99863.75;;;11.14;99.05
17230;BME280;8731;50.364;8.958;2023-05-11T03:11:24;99859.28;;;11.21;98.34
17230;BME280;8731;50.364;8.958;2023-05-11T03:15:47;99861.13;;;10.93;100.00
17230;BME280;8731;50.364;8.958;2023-05-11T03:20:12;99868.72;;;10.73;100.00
17230;BME280;8731;50.364;8.958;2023-05-11T03:24:37;99861.84;;;10.72;100.00
17230;BME280;8731;50.364;8.958;2023-05-11T03:29:01;99859.09;;;10.89;100.00
17230;BME280;8731;50.364;8.958;2023-05-11T03:33:24;99860.00;;;11.00;100.00
17230;BME280;8731;50.364;8.958;2023-05-11T03:37:49;99856.25;;;10.86;100.00
17230;BME280;8731;50.364;8.958;2023-05-11T03:42:16;99861.28;;;10.95;100.00
17230;BME280;8731;50.364;8.958;2023-05-11T03:46:40;99852.50;;;11.01;100.00
17230;BME280;8731;50.364;8.958;2023-05-11T03:51:08;99856.19;;;11.05;100.00
17230;BME280;8731;50.364;8.958;2023-05-11T03:55:33;99856.81;;;11.02;100.00
17230;BME280;8731;50.364;8.958;2023-05-11T03:59:55;99849.94;;;11.12;100.00
17230;BME280;8731;50.364;8.958;2023-05-11T04:04:18;99853.81;;;11.17;100.00
17230;BME280;8731;50.364;8.958;2023-05-11T04:08:40;99850.75;;;11.21;100.00
17230;BME280;8731;50.364;8.958;2023-05-11T04:13:04;99859.41;;;11.33;100.00
17230;BME280;8731;50.364;8.958;2023-05-11T04:17:26;99855.84;;;11.31;100.00
17230;BME280;8731;50.364;8.958;2023-05-11T04:21:49;99853.03;;;11.28;100.00
17230;BME280;8731;50.364;8.958;2023-05-11T04:26:11;99852.28;;;11.29;100.00
17230;BME280;8731;50.364;8.958;2023-05-11T04:30:35;99860.59;;;11.47;100.00
17230;BME280;8731;50.364;8.958;2023-05-11T04:34:57;99856.88;;;11.53;100.00
17230;BME280;8731;50.364;8.958;2023-05-11T04:39:22;99858.66;;;11.54;100.00
17230;BME280;8731;50.364;8.958;2023-05-11T04:43:45;99864.28;;;11.60;100.00
17230;BME280;8731;50.364;8.958;2023-05-11T04:48:09;99861.47;;;11.67;100.00
17230;BME280;8731;50.364;8.958;2023-05-11T04:52:31;99864.53;;;11.63;100.00
17230;BME280;8731;50.364;8.958;2023-05-11T04:56:54;99870.41;;;11.73;100.00
17230;BME280;8731;50.364;8.958;2023-05-11T05:01:17;99866.31;;;11.75;100.00
17230;BME280;8731;50.364;8.958;2023-05-11T05:05:41;99874.38;;;11.79;100.00
17230;BME280;8731;50.364;8.958;2023-05-11T05:10:04;99874.78;;;11.84;100.00
17230;BME280;8731;50.364;8.958;2023-05-11T05:14:28;99879.13;;;11.85;100.00
17230;BME280;8731;50.364;8.958;2023-05-11T05:18:50;99879.47;;;11.69;100.00
17230;BME280;8731;50.364;8.958;2023-05-11T05:23:15;99876.16;;;11.90;100.00
17230;BME280;8731;50.364;8.958;2023-05-11T05:27:38;99885.22;;;11.97;100.00
17230;BME280;8731;50.364;8.958;2023-05-11T05:32:04;99885.22;;;11.87;100.00
17230;BME280;8731;50.364;8.958;2023-05-11T05:36:27;99886.00;;;11.86;100.00
17230;BME280;8731;50.364;8.958;2023-05-11T05:40:51;99884.16;;;12.05;100.00
17230;BME280;8731;50.364;8.958;2023-05-11T05:45:14;99886.34;;;12.11;100.00
17230;BME280;8731;50.364;8.958;2023-05-11T05:49:36;99898.25;;;12.42;100.00
17230;BME280;8731;50.364;8.958;2023-05-11T05:54:00;99893.97;;;12.21;100.00
17230;BME280;8731;50.364;8.958;2023-05-11T05:58:26;99894.47;;;12.27;100.00
17230;BME280;8731;50.364;8.958;2023-05-11T06:02:49;99899.44;;;12.36;100.00
17230;BME280;8731;50.364;8.958;2023-05-11T06:07:17;99901.22;;;12.37;100.00
17230;BME280;8731;50.364;8.958;2023-05-11T06:11:40;99909.91;;;12.39;100.00
17230;BME280;8731;50.364;8.958;2023-05-11T06:16:04;99912.69;;;12.42;100.00
17230;BME280;8731;50.364;8.958;2023-05-11T06:20:30;99906.81;;;12.43;100.00
17230;BME280;8731;50.364;8.958;2023-05-11T06:24:52;99905.38;;;12.56;100.00
17230;BME280;8731;50.364;8.958;2023-05-11T06:29:15;99911.88;;;12.63;100.00
17230;BME280;8731;50.364;8.958;2023-05-11T06:33:41;99906.22;;;12.67;100.00
17230;BME280;8731;50.364;8.958;2023-05-11T06:38:12;99907.66;;;12.64;100.00
17230;BME280;8731;50.364;8.958;2023-05-11T06:42:35;99909.03;;;12.70;100.00
17230;BME280;8731;50.364;8.958;2023-05-11T06:47:00;99902.91;;;12.68;100.00
17230;BME280;8731;50.364;8.958;2023-05-11T06:51:24;99913.59;;;12.84;100.00
17230;BME280;8731;50.364;8.958;2023-05-11T06:55:47;99908.47;;;12.84;100.00
17230;BME280;8731;50.364;8.958;2023-05-11T07:00:10;99907.81;;;12.87;100.00
17230;BME280;8731;50.364;8.958;2023-05-11T07:04:33;99911.16;;;12.86;99.57
17230;BME280;8731;50.364;8.958;2023-05-11T07:08:57;99909.94;;;13.03;99.65
17230;BME280;8731;50.364;8.958;2023-05-11T07:13:20;99907.09;;;13.00;100.00
17230;BME280;8731;50.364;8.958;2023-05-11T07:17:42;99911.72;;;13.04;99.45
17230;BME280;8731;50.364;8.958;2023-05-11T07:22:06;99916.31;;;12.98;100.00
17230;BME280;8731;50.364;8.958;2023-05-11T07:26:30;99914.38;;;13.05;99.40
17230;BME280;8731;50.364;8.958;2023-05-11T07:30:52;99914.53;;;12.97;98.79
17230;BME280;8731;50.364;8.958;2023-05-11T07:35:15;99915.81;;;13.24;99.58
17230;BME280;8731;50.364;8.958;2023-05-11T07:39:37;99908.34;;;13.37;98.98
17230;BME280;8731;50.364;8.958;2023-05-11T07:44:01;99908.56;;;13.40;99.63
17230;BME280;8731;50.364;8.958;2023-05-11T07:48:24;99909.69;;;13.43;100.00
17230;BME280;8731;50.364;8.958;2023-05-11T07:52:46;99915.59;;;13.42;100.00
17230;BME280;8731;50.364;8.958;2023-05-11T07:57:08;99911.34;;;13.65;98.90
17230;BME280;8731;50.364;8.958;2023-05-11T08:01:34;99913.88;;;13.53;99.31
17230;BME280;8731;50.364;8.958;2023-05-11T08:05:57;99906.69;;;13.71;98.33
17230;BME280;8731;50.364;8.958;2023-05-11T08:10:19;99908.25;;;13.69;98.42
17230;BME280;8731;50.364;8.958;2023-05-11T08:14:41;99908.78;;;13.65;98.47
17230;BME280;8731;50.364;8.958;2023-05-11T08:19:05;99915.84;;;13.79;98.43
17230;BME280;8731;50.364;8.958;2023-05-11T08:23:27;99911.78;;;13.71;99.25
17230;BME280;8731;50.364;8.958;2023-05-11T08:27:49;99916.31;;;13.85;98.00
17230;BME280;8731;50.364;8.958;2023-05-11T08:32:12;99913.91;;;13.98;97.16
17230;BME280;8731;50.364;8.958;2023-05-11T08:36:35;99911.47;;;14.11;96.25
17230;BME280;8731;50.364;8.958;2023-05-11T08:41:00;99915.25;;;14.17;96.38
17230;BME280;8731;50.364;8.958;2023-05-11T08:45:24;99918.81;;;14.19;95.37
17230;BME280;8731;50.364;8.958;2023-05-11T08:49:47;99923.75;;;14.27;95.04
17230;BME280;8731;50.364;8.958;2023-05-11T08:54:12;99919.03;;;14.10;95.77
17230;BME280;8731;50.364;8.958;2023-05-11T08:58:35;99920.16;;;14.37;94.97
17230;BME280;8731;50.364;8.958;2023-05-11T09:02:59;99923.63;;;14.37;94.44
17230;BME280;8731;50.364;8.958;2023-05-11T09:07:23;99919.66;;;14.53;93.62
17230;BME280;8731;50.364;8.958;2023-05-11T09:11:48;99920.66;;;14.55;93.20
17230;BME280;8731;50.364;8.958;2023-05-11T09:16:11;99920.44;;;14.63;92.98
17230;BME280;8731;50.364;8.958;2023-05-11T09:20:34;99919.59;;;14.41;93.58
17230;BME280;8731;50.364;8.958;2023-05-11T09:24:56;99922.88;;;14.73;92.79
17230;BME280;8731;50.364;8.958;2023-05-11T09:29:20;99916.88;;;14.73;92.81
17230;BME280;8731;50.364;8.958;2023-05-11T09:33:43;99920.00;;;14.69;92.57
17230;BME280;8731;50.364;8.958;2023-05-11T09:38:07;99915.41;;;14.77;91.86
17230;BME280;8731;50.364;8.958;2023-05-11T09:42:31;99921.75;;;14.82;91.17
17230;BME280;8731;50.364;8.958;2023-05-11T09:47:09;99917.06;;;14.88;91.69
17230;BME280;8731;50.364;8.958;2023-05-11T09:51:34;99924.06;;;15.02;91.50
17230;BME280;8731;50.364;8.958;2023-05-11T09:55:57;99918.69;;;15.11;90.21
17230;BME280;8731;50.364;8.958;2023-05-11T10:00:20;99913.44;;;14.49;92.44
17230;BME280;8731;50.364;8.958;2023-05-11T10:04:45;99912.72;;;14.98;90.41
17230;BME280;8731;50.364;8.958;2023-05-11T10:09:08;99915.91;;;15.19;90.22
17230;BME280;8731;50.364;8.958;2023-05-11T10:13:33;99908.03;;;15.29;89.61
17230;BME280;8731;50.364;8.958;2023-05-11T10:17:57;99912.75;;;15.23;88.20
17230;BME280;8731;50.364;8.958;2023-05-11T10:22:22;99900.75;;;15.35;87.67
17230;BME280;8731;50.364;8.958;2023-05-11T10:26:45;99905.94;;;15.60;87.31
17230;BME280;8731;50.364;8.958;2023-05-11T10:31:08;99896.41;;;15.34;88.72
17230;BME280;8731;50.364;8.958;2023-05-11T10:35:31;99893.44;;;15.53;88.51
17230;BME280;8731;50.364;8.958;2023-05-11T10:39:56;99888.69;;;15.46;88.64
17230;BME280;8731;50.364;8.958;2023-05-11T10:49:50;99898.84;;;15.45;86.43
17230;BME280;8731;50.364;8.958;2023-05-11T10:54:52;99894.41;;;15.42;87.69
17230;BME280;8731;50.364;8.958;2023-05-11T11:04:51;99891.88;;;15.80;87.02
17230;BME280;8731;50.364;8.958;2023-05-11T11:09:14;99889.75;;;15.86;86.11
17230;BME280;8731;50.364;8.958;2023-05-11T11:13:56;99893.56;;;15.80;85.55
17230;BME280;8731;50.364;8.958;2023-05-11T11:18:23;99882.63;;;15.82;85.36
17230;BME280;8731;50.364;8.958;2023-05-11T11:22:46;99895.22;;;15.54;86.33
17230;BME280;8731;50.364;8.958;2023-05-11T11:27:09;99886.13;;;15.46;87.66
17230;BME280;8731;50.364;8.958;2023-05-11T11:31:33;99885.06;;;15.56;89.23
17230;BME280;8731;50.364;8.958;2023-05-11T11:35:56;99889.47;;;15.09;90.30
17230;BME280;8731;50.364;8.958;2023-05-11T11:40:34;99888.13;;;15.50;89.05
17230;BME280;8731;50.364;8.958;2023-05-11T11:45:28;99875.69;;;15.68;87.62
17230;BME280;8731;50.364;8.958;2023-05-11T11:49:53;99886.84;;;15.57;88.37
17230;BME280;8731;50.364;8.958;2023-05-11T11:54:35;99877.97;;;15.77;87.05
17230;BME280;8731;50.364;8.958;2023-05-11T11:58:58;99875.53;;;16.05;87.37
17230;BME280;8731;50.364;8.958;2023-05-11T12:03:24;99867.06;;;15.92;86.95
17230;BME280;8731;50.364;8.958;2023-05-11T12:07:48;99870.41;;;15.91;88.79
17230;BME280;8731;50.364;8.958;2023-05-11T12:12:11;99872.63;;;16.12;87.24
17230;BME280;8731;50.364;8.958;2023-05-11T12:16:37;99871.06;;;15.76;89.26
17230;BME280;8731;50.364;8.958;2023-05-11T12:21:00;99873.81;;;16.43;87.76
17230;BME280;8731;50.364;8.958;2023-05-11T12:25:23;99868.06;;;16.21;86.10
17230;BME280;8731;50.364;8.958;2023-05-11T12:29:48;99867.38;;;16.50;84.36
17230;BME280;8731;50.364;8.958;2023-05-11T12:34:13;99867.88;;;16.57;84.75
17230;BME280;8731;50.364;8.958;2023-05-11T12:38:43;99863.84;;;15.83;87.79
17230;BME280;8731;50.364;8.958;2023-05-11T12:43:05;99864.22;;;16.80;85.81
17230;BME280;8731;50.364;8.958;2023-05-11T12:47:28;99855.31;;;16.75;85.08
17230;BME280;8731;50.364;8.958;2023-05-11T12:51:59;99849.78;;;16.82;84.09
17230;BME280;8731;50.364;8.958;2023-05-11T12:56:28;99855.22;;;16.87;83.20
17230;BME280;8731;50.364;8.958;2023-05-11T13:00:51;99846.31;;;16.82;82.21
17230;BME280;8731;50.364;8.958;2023-05-11T13:05:15;99845.13;;;16.77;81.81
17230;BME280;8731;50.364;8.958;2023-05-11T13:09:40;99839.88;;;17.16;81.96
17230;BME280;8731;50.364;8.958;2023-05-11T13:14:15;99842.19;;;17.27;83.75
17230;BME280;8731;50.364;8.958;2023-05-11T13:18:37;99838.94;;;17.01;83.79
17230;BME280;8731;50.364;8.958;2023-05-11T13:23:20;99844.56;;;16.81;83.39
17230;BME280;8731;50.364;8.958;2023-05-11T13:27:43;99838.16;;;17.30;82.28
17230;BME280;8731;50.364;8.958;2023-05-11T13:32:07;99839.59;;;17.40;83.37
17230;BME280;8731;50.364;8.958;2023-05-11T13:36:29;99832.97;;;17.15;79.15
17230;BME280;8731;50.364;8.958;2023-05-11T13:40:52;99836.06;;;17.10;79.45
17230;BME280;8731;50.364;8.958;2023-05-11T13:45:14;99822.47;;;17.40;79.72
17230;BME280;8731;50.364;8.958;2023-05-11T13:49:38;99831.69;;;17.37;81.76
17230;BME280;8731;50.364;8.958;2023-05-11T13:54:01;99825.47;;;17.48;80.87
17230;BME280;8731;50.364;8.958;2023-05-11T13:58:23;99825.25;;;17.58;79.67
17230;BME280;8731;50.364;8.958;2023-05-11T14:02:46;99827.69;;;17.85;80.94
17230;BME280;8731;50.364;8.958;2023-05-11T14:07:10;99815.69;;;17.85;81.40
17230;BME280;8731;50.364;8.958;2023-05-11T14:11:34;99810.88;;;17.91;81.68
17230;BME280;8731;50.364;8.958;2023-05-11T14:15:56;99806.97;;;17.98;81.61
17230;BME280;8731;50.364;8.958;2023-05-11T14:20:19;99807.88;;;17.98;80.68
17230;BME280;8731;50.364;8.958;2023-05-11T14:24:43;99804.69;;;17.88;80.61
17230;BME280;8731;50.364;8.958;2023-05-11T14:29:05;99808.78;;;17.84;80.78
17230;BME280;8731;50.364;8.958;2023-05-11T14:33:27;99816.16;;;17.50;83.72
17230;BME280;8731;50.364;8.958;2023-05-11T14:37:50;99806.75;;;17.36;83.47
17230;BME280;8731;50.364;8.958;2023-05-11T14:42:15;99805.50;;;17.44;84.70
17230;BME280;8731;50.364;8.958;2023-05-11T14:46:37;99807.97;;;17.28;86.05
17230;BME280;8731;50.364;8.958;2023-05-11T14:51:00;99813.78;;;17.10;87.10
17230;BME280;8731;50.364;8.958;2023-05-11T14:55:22;99812.31;;;17.01;87.34
17230;BME280;8731;50.364;8.958;2023-05-11T14:59:46;99807.06;;;16.71;89.47
17230;BME280;8731;50.364;8.958;2023-05-11T15:04:09;99814.59;;;16.81;87.64
17230;BME280;8731;50.364;8.958;2023-05-11T15:08:32;99819.03;;;16.71;87.60
17230;BME280;8731;50.364;8.958;2023-05-11T15:12:54;99811.34;;;16.57;88.45
17230;BME280;8731;50.364;8.958;2023-05-11T15:17:18;99809.13;;;16.77;88.89
17230;BME280;8731;50.364;8.958;2023-05-11T15:21:40;99813.91;;;16.71;89.81
17230;BME280;8731;50.364;8.958;2023-05-11T15:26:02;99814.16;;;16.88;88.07
17230;BME280;8731;50.364;8.958;2023-05-11T15:30:25;99816.94;;;16.78;89.25
17230;BME280;8731;50.364;8.958;2023-05-11T15:34:49;99809.53;;;16.70;88.42
17230;BME280;8731;50.364;8.958;2023-05-11T15:39:12;99813.81;;;16.69;88.67
17230;BME280;8731;50.364;8.958;2023-05-11T15:43:36;99811.22;;;16.56;89.33
17230;BME280;8731;50.364;8.958;2023-05-11T15:47:59;99818.34;;;16.60;88.17
17230;BME280;8731;50.364;8.958;2023-05-11T15:52:23;99809.53;;;16.70;88.11
17230;BME280;8731;50.364;8.958;2023-05-11T15:56:45;99812.41;;;16.74;87.85
17230;BME280;8731;50.364;8.958;2023-05-11T16:01:08;99809.53;;;16.70;88.60
17230;BME280;8731;50.364;8.958;2023-05-11T16:05:31;99814.50;;;16.67;88.83
17230;BME280;8731;50.364;8.958;2023-05-11T16:09:54;99809.38;;;16.67;89.41
17230;BME280;8731;50.364;8.958;2023-05-11T16:14:17;99807.78;;;16.69;89.77
17230;BME280;8731;50.364;8.958;2023-05-11T16:18:39;99811.31;;;16.71;90.10
17230;BME280;8731;50.364;8.958;2023-05-11T16:23:01;99801.50;;;16.78;90.26
17230;BME280;8731;50.364;8.958;2023-05-11T16:27:26;99801.44;;;16.50;91.97
17230;BME280;8731;50.364;8.958;2023-05-11T16:31:48;99804.88;;;16.64;91.30
17230;BME280;8731;50.364;8.958;2023-05-11T16:36:10;99801.09;;;16.18;94.01
17230;BME280;8731;50.364;8.958;2023-05-11T16:40:33;99802.56;;;16.27;93.57
17230;BME280;8731;50.364;8.958;2023-05-11T16:44:56;99799.69;;;16.23;92.58
17230;BME280;8731;50.364;8.958;2023-05-11T16:49:19;99806.22;;;16.18;91.30
17230;BME280;8731;50.364;8.958;2023-05-11T16:53:44;99803.63;;;16.31;90.26
17230;BME280;8731;50.364;8.958;2023-05-11T16:58:07;99798.91;;;16.37;90.20
17230;BME280;8731;50.364;8.958;2023-05-11T17:02:31;99793.38;;;16.18;91.60
17230;BME280;8731;50.364;8.958;2023-05-11T17:06:53;99797.19;;;15.72;96.38
17230;BME280;8731;50.364;8.958;2023-05-11T17:11:16;99795.72;;;15.75;96.62
17230;BME280;8731;50.364;8.958;2023-05-11T17:15:38;99802.28;;;16.10;93.57
17230;BME280;8731;50.364;8.958;2023-05-11T17:20:03;99799.50;;;15.93;94.91
17230;BME280;8731;50.364;8.958;2023-05-11T17:24:26;99798.22;;;16.00;95.66
17230;BME280;8731;50.364;8.958;2023-05-11T17:28:49;99807.19;;;16.07;94.78
17230;BME280;8731;50.364;8.958;2023-05-11T17:33:11;99804.59;;;15.80;95.34
17230;BME280;8731;50.364;8.958;2023-05-11T17:37:35;99804.81;;;15.83;96.22
17230;BME280;8731;50.364;8.958;2023-05-11T17:41:57;99811.16;;;16.02;95.36
17230;BME280;8731;50.364;8.958;2023-05-11T17:46:19;99808.00;;;15.92;95.84
17230;BME280;8731;50.364;8.958;2023-05-11T17:50:42;99806.22;;;15.91;95.33
17230;BME280;8731;50.364;8.958;2023-05-11T17:55:07;99813.81;;;16.03;94.89
17230;BME280;8731;50.364;8.958;2023-05-11T17:59:30;99811.53;;;15.94;95.12
17230;BME280;8731;50.364;8.958;2023-05-11T18:03:52;99810.47;;;15.91;94.65
17230;BME280;8731;50.364;8.958;2023-05-11T18:08:20;99810.13;;;15.73;95.46
17230;BME280;8731;50.364;8.958;2023-05-11T18:12:46;99816.66;;;15.56;97.08
17230;BME280;8731;50.364;8.958;2023-05-11T18:17:09;99805.31;;;15.53;97.23
17230;BME280;8731;50.364;8.958;2023-05-11T18:21:31;99819.91;;;15.41;98.26
17230;BME280;8731;50.364;8.958;2023-05-11T18:25:53;99820.19;;;15.45;99.01
17230;BME280;8731;50.364;8.958;2023-05-11T18:30:17;99818.78;;;15.37;99.08
17230;BME280;8731;50.364;8.958;2023-05-11T18:34:40;99813.78;;;15.39;98.34
17230;BME280;8731;50.364;8.958;2023-05-11T18:39:02;99815.56;;;15.40;98.39
17230;BME280;8731;50.364;8.958;2023-05-11T18:43:25;99818.78;;;15.37;99.03
17230;BME280;8731;50.364;8.958;2023-05-11T18:47:49;99830.31;;;15.05;100.00
17230;BME280;8731;50.364;8.958;2023-05-11T18:52:11;99831.47;;;15.22;99.11
17230;BME280;8731;50.364;8.958;2023-05-11T18:56:35;99828.41;;;15.03;100.00
17230;BME280;8731;50.364;8.958;2023-05-11T19:00:58;99833.38;;;15.13;98.98
17230;BME280;8731;50.364;8.958;2023-05-11T19:05:21;99835.19;;;15.14;98.60
17230;BME280;8731;50.364;8.958;2023-05-11T19:09:44;99834.06;;;15.11;100.00
17230;BME280;8731;50.364;8.958;2023-05-11T19:14:06;99846.41;;;14.91;100.00
17230;BME280;8731;50.364;8.958;2023-05-11T19:18:29;99843.50;;;14.87;100.00
17230;BME280;8731;50.364;8.958;2023-05-11T19:22:56;99843.38;;;14.97;100.00
17230;BME280;8731;50.364;8.958;2023-05-11T19:27:26;99851.88;;;14.84;100.00
17230;BME280;8731;50.364;8.958;2023-05-11T19:31:54;99851.97;;;14.86;100.00
17230;BME280;8731;50.364;8.958;2023-05-11T19:36:25;99853.94;;;15.01;99.63
17230;BME280;8731;50.364;8.958;2023-05-11T19:40:49;99864.00;;;14.87;100.00
17230;BME280;8731;50.364;8.958;2023-05-11T19:45:12;99868.25;;;14.86;100.00
17230;BME280;8731;50.364;8.958;2023-05-11T19:49:35;99856.78;;;14.93;100.00
17230;BME280;8731;50.364;8.958;2023-05-11T19:53:59;99856.00;;;14.94;99.29
17230;BME280;8731;50.364;8.958;2023-05-11T19:58:23;99868.59;;;14.91;99.82
17230;BME280;8731;50.364;8.958;2023-05-11T20:02:45;99882.75;;;14.27;100.00
17230;BME280;8731;50.364;8.958;2023-05-11T20:07:08;99869.59;;;14.81;100.00
17230;BME280;8731;50.364;8.958;2023-05-11T20:11:30;99876.28;;;14.91;100.00
17230;BME280;8731;50.364;8.958;2023-05-11T20:15:54;99867.94;;;14.82;100.00
17230;BME280;8731;50.364;8.958;2023-05-11T20:20:17;99865.25;;;14.92;100.00
17230;BME280;8731;50.364;8.958;2023-05-11T20:24:39;99865.47;;;14.95;99.60
17230;BME280;8731;50.364;8.958;2023-05-11T20:29:01;99865.38;;;14.82;100.00
17230;BME280;8731;50.364;8.958;2023-05-11T20:33:26;99872.94;;;14.92;100.00
17230;BME280;8731;50.364;8.958;2023-05-11T20:37:48;99872.06;;;14.91;100.00
17230;BME280;8731;50.364;8.958;2023-05-11T20:42:10;99866.06;;;14.67;100.00
17230;BME280;8731;50.364;8.958;2023-05-11T20:46:33;99859.66;;;14.86;100.00
17230;BME280;8731;50.364;8.958;2023-05-11T20:50:57;99847.31;;;14.80;100.00
17230;BME280;8731;50.364;8.958;2023-05-11T20:55:19;99846.00;;;14.73;100.00
17230;BME280;8731;50.364;8.958;2023-05-11T20:59:42;99854.69;;;14.64;100.00
17230;BME280;8731;50.364;8.958;2023-05-11T21:04:04;99840.09;;;14.74;100.00
17230;BME280;8731;50.364;8.958;2023-05-11T21:08:28;99838.78;;;14.68;100.00
17230;BME280;8731;50.364;8.958;2023-05-11T21:12:50;99835.06;;;14.76;100.00
17230;BME280;8731;50.364;8.958;2023-05-11T21:17:13;99838.41;;;14.75;100.00
17230;BME280;8731;50.364;8.958;2023-05-11T21:21:35;99835.97;;;14.41;100.00
17230;BME280;8731;50.364;8.958;2023-05-11T21:26:00;99834.91;;;14.50;100.00
17230;BME280;8731;50.364;8.958;2023-05-11T21:30:22;99831.31;;;14.59;100.00
17230;BME280;8731;50.364;8.958;2023-05-11T21:34:44;99832.22;;;14.25;100.00
17230;BME280;8731;50.364;8.958;2023-05-11T21:39:07;99829.75;;;14.26;100.00
17230;BME280;8731;50.364;8.958;2023-05-11T21:43:30;99830.25;;;14.44;100.00
17230;BME280;8731;50.364;8.958;2023-05-11T21:47:53;99837.78;;;14.07;100.00
17230;BME280;8731;50.364;8.958;2023-05-11T21:52:15;99833.53;;;14.31;100.00
17230;BME280;8731;50.364;8.958;2023-05-11T21:56:37;99829.53;;;14.35;100.00
17230;BME280;8731;50.364;8.958;2023-05-11T22:01:02;99837.56;;;14.28;100.00
17230;BME280;8731;50.364;8.958;2023-05-11T22:05:25;99833.00;;;14.24;100.00
17230;BME280;8731;50.364;8.958;2023-05-11T22:09:47;99833.53;;;14.08;100.00
17230;BME280;8731;50.364;8.958;2023-05-11T22:14:10;99843.78;;;13.96;100.00
17230;BME280;8731;50.364;8.958;2023-05-11T22:18:33;99848.91;;;13.96;100.00
17230;BME280;8731;50.364;8.958;2023-05-11T22:22:55;99841.97;;;13.95;100.00
17230;BME280;8731;50.364;8.958;2023-05-11T22:27:18;99844.06;;;13.66;100.00
17230;BME280;8731;50.364;8.958;2023-05-11T22:31:41;99854.03;;;13.96;100.00
17230;BME280;8731;50.364;8.958;2023-05-11T22:36:05;99855.78;;;13.74;100.00
17230;BME280;8731;50.364;8.958;2023-05-11T22:40:27;99859.72;;;13.59;100.00
17230;BME280;8731;50.364;8.958;2023-05-11T22:44:50;99860.94;;;13.52;100.00
17230;BME280;8731;50.364;8.958;2023-05-11T22:49:12;99870.50;;;13.55;100.00
17230;BME280;8731;50.364;8.958;2023-05-11T22:53:36;99865.84;;;13.27;100.00
17230;BME280;8731;50.364;8.958;2023-05-11T22:57:59;99866.78;;;13.39;100.00
17230;BME280;8731;50.364;8.958;2023-05-11T23:02:21;99861.84;;;13.31;100.00
17230;BME280;8731;50.364;8.958;2023-05-11T23:06:43;99865.59;;;13.24;100.00
17230;BME280;8731;50.364;8.958;2023-05-11T23:11:07;99864.69;;;13.24;100.00
17230;BME280;8731;50.364;8.958;2023-05-11T23:15:29;99862.56;;;13.18;100.00
17230;BME280;8731;50.364;8.958;2023-05-11T23:19:52;99860.00;;;13.18;100.00
17230;BME280;8731;50.364;8.958;2023-05-11T23:24:14;99864.81;;;13.03;100.00
17230;BME280;8731;50.364;8.958;2023-05-11T23:28:38;99868.25;;;13.04;100.00
17230;BME280;8731;50.364;8.958;2023-05-11T23:33:00;99868.19;;;12.92;100.00
17230;BME280;8731;50.364;8.958;2023-05-11T23:37:22;99865.97;;;12.97;100.00
17230;BME280;8731;50.364;8.958;2023-05-11T23:41:45;99864.81;;;13.03;100.00